sensor_id;sensor_type;location;lat;lon;timestamp;temperature;humidity
15343;DHT22;7771;48.478;8.936;2023-05-10T00:01:24;16.30;99.90
15343;DHT22;7771;48.478;8.936;2023-05-10T00:03:50;16.30;99.90
15343;DHT22;7771;48.478;8.936;2023-05-10T00:06:18;16.30;99.90
15343;DHT22;7771;48.478;8.936;2023-05-10T00:08:44;16.20;99.90
15343;DHT22;7771;48.478;8.936;2023-05-10T00:11:11;16.20;99.90
15343;DHT22;7771;48.478;8.936;2023-05-10T00:13:38;16.20;99.90
15343;DHT22;7771;48.478;8.936;2023-05-10T00:16:05;16.20;99.90
15343;DHT22;7771;48.478;8.936;2023-05-10T00:18:32;16.10;99.90
15343;DHT22;7771;48.478;8.936;2023-05-10T00:20:59;16.10;99.90
15343;DHT22;7771;48.478;8.936;2023-05-10T00:23:27;16.10;99.90
15343;DHT22;7771;48.478;8.936;2023-05-10T00:25:53;16.00;99.90
15343;DHT22;7771;48.478;8.936;2023-05-10T00:28:20;16.00;99.90
15343;DHT22;7771;48.478;8.936;2023-05-10T00:30:47;16.00;99.90
15343;DHT22;7771;48.478;8.936;2023-05-10T00:35:42;15.90;99.90
15343;DHT22;7771;48.478;8.936;2023-05-10T00:38:10;15.90;99.90
15343;DHT22;7771;48.478;8.936;2023-05-10T00:40:37;15.90;99.90
15343;DHT22;7771;48.478;8.936;2023-05-10T00:43:04;15.80;99.90
15343;DHT22;7771;48.478;8.936;2023-05-10T00:45:32;15.80;99.90
15343;DHT22;7771;48.478;8.936;2023-05-10T00:47:59;15.80;99.90
15343;DHT22;7771;48.478;8.936;2023-05-10T00:50:25;15.80;99.90
15343;DHT22;7771;48.478;8.936;2023-05-10T00:52:54;15.80;99.90
15343;DHT22;7771;48.478;8.936;2023-05-10T00:55:20;15.80;99.90
15343;DHT22;7771;48.478;8.936;2023-05-10T00:57:48;15.80;99.90
15343;DHT22;7771;48.478;8.936;2023-05-10T01:00:15;15.80;99.90
15343;DHT22;7771;48.478;8.936;2023-05-10T01:02:42;15.80;99.90
15343;DHT22;7771;48.478;8.936;2023-05-10T01:07:38;15.80;99.90
15343;DHT22;7771;48.478;8.936;2023-05-10T01:10:05;15.80;99.90
15343;DHT22;7771;48.478;8.936;2023-05-10T01:12:35;15.80;99.90
15343;DHT22;7771;48.478;8.936;2023-05-10T01:15:00;15.80;99.90
15343;DHT22;7771;48.478;8.936;2023-05-10T01:19:55;15.70;99.90
15343;DHT22;7771;48.478;8.936;2023-05-10T01:31:54;15.70;99.90
15343;DHT22;7771;48.478;8.936;2023-05-10T01:33:27;15.70;99.90
15343;DHT22;7771;48.478;8.936;2023-05-10T01:35:56;15.70;99.90
15343;DHT22;7771;48.478;8.936;2023-05-10T01:38:29;15.70;99.90
15343;DHT22;7771;48.478;8.936;2023-05-10T01:41:09;15.70;99.90
15343;DHT22;7771;48.478;8.936;2023-05-10T01:43:33;15.70;99.90
15343;DHT22;7771;48.478;8.936;2023-05-10T01:46:04;15.70;99.90
15343;DHT22;7771;48.478;8.936;2023-05-10T01:48:31;15.70;99.90
15343;DHT22;7771;48.478;8.936;2023-05-10T01:50:58;15.60;99.90
15343;DHT22;7771;48.478;8.936;2023-05-10T01:53:26;15.60;99.90
15343;DHT22;7771;48.478;8.936;2023-05-10T01:55:54;15.60;99.90
15343;DHT22;7771;48.478;8.936;2023-05-10T01:58:24;15.60;99.90
15343;DHT22;7771;48.478;8.936;2023-05-10T02:00:50;15.50;99.90
15343;DHT22;7771;48.478;8.936;2023-05-10T02:03:16;15.50;99.90
15343;DHT22;7771;48.478;8.936;2023-05-10T02:05:43;15.50;99.90
15343;DHT22;7771;48.478;8.936;2023-05-10T02:08:10;15.40;99.90
15343;DHT22;7771;48.478;8.936;2023-05-10T02:10:37;15.40;99.90
15343;DHT22;7771;48.478;8.936;2023-05-10T02:13:05;15.40;99.90
15343;DHT22;7771;48.478;8.936;2023-05-10T02:15:33;15.40;99.90
15343;DHT22;7771;48.478;8.936;2023-05-10T02:17:59;15.30;99.90
15343;DHT22;7771;48.478;8.936;2023-05-10T02:20:26;15.30;99.90
15343;DHT22;7771;48.478;8.936;2023-05-10T02:22:54;15.40;99.90
15343;DHT22;7771;48.478;8.936;2023-05-10T02:25:21;15.30;99.90
15343;DHT22;7771;48.478;8.936;2023-05-10T02:27:48;15.30;99.90
15343;DHT22;7771;48.478;8.936;2023-05-10T02:30:16;15.20;99.90
15343;DHT22;7771;48.478;8.936;2023-05-10T02:32:42;15.20;99.90
15343;DHT22;7771;48.478;8.936;2023-05-10T02:35:10;15.20;99.90
15343;DHT22;7771;48.478;8.936;2023-05-10T02:37:37;15.20;99.90
15343;DHT22;7771;48.478;8.936;2023-05-10T02:40:05;15.20;99.90
15343;DHT22;7771;48.478;8.936;2023-05-10T02:42:33;15.20;99.90
15343;DHT22;7771;48.478;8.936;2023-05-10T02:44:59;15.20;99.90
15343;DHT22;7771;48.478;8.936;2023-05-10T02:49:55;15.10;99.90
15343;DHT22;7771;48.478;8.936;2023-05-10T02:52:25;15.10;99.90
15343;DHT22;7771;48.478;8.936;2023-05-10T02:54:54;15.10;99.90
15343;DHT22;7771;48.478;8.936;2023-05-10T02:57:21;15.10;99.90
15343;DHT22;7771;48.478;8.936;2023-05-10T02:59:45;15.10;99.90
15343;DHT22;7771;48.478;8.936;2023-05-10T03:02:12;15.10;99.90
15343;DHT22;7771;48.478;8.936;2023-05-10T03:07:07;15.10;99.90
15343;DHT22;7771;48.478;8.936;2023-05-10T03:09:35;15.10;99.90
15343;DHT22;7771;48.478;8.936;2023-05-10T03:12:04;15.10;99.90
15343;DHT22;7771;48.478;8.936;2023-05-10T03:17:11;15.00;99.90
15343;DHT22;7771;48.478;8.936;2023-05-10T03:19:43;15.00;99.90
15343;DHT22;7771;48.478;8.936;2023-05-10T03:22:08;15.00;99.90
15343;DHT22;7771;48.478;8.936;2023-05-10T03:24:35;15.00;99.90
15343;DHT22;7771;48.478;8.936;2023-05-10T03:27:02;15.00;99.90
15343;DHT22;7771;48.478;8.936;2023-05-10T03:29:30;15.00;99.90
15343;DHT22;7771;48.478;8.936;2023-05-10T03:31:58;15.00;99.90
15343;DHT22;7771;48.478;8.936;2023-05-10T03:36:52;14.90;99.90
15343;DHT22;7771;48.478;8.936;2023-05-10T03:39:20;14.90;99.90
15343;DHT22;7771;48.478;8.936;2023-05-10T03:41:46;14.90;99.90
15343;DHT22;7771;48.478;8.936;2023-05-10T03:44:14;14.90;99.90
15343;DHT22;7771;48.478;8.936;2023-05-10T03:46:40;14.90;99.90
15343;DHT22;7771;48.478;8.936;2023-05-10T03:49:08;14.90;99.90
15343;DHT22;7771;48.478;8.936;2023-05-10T03:51:35;14.90;99.90
15343;DHT22;7771;48.478;8.936;2023-05-10T03:56:30;14.90;99.90
15343;DHT22;7771;48.478;8.936;2023-05-10T03:58:57;14.90;99.90
15343;DHT22;7771;48.478;8.936;2023-05-10T04:01:23;14.90;99.90
15343;DHT22;7771;48.478;8.936;2023-05-10T04:03:50;14.90;99.90
15343;DHT22;7771;48.478;8.936;2023-05-10T04:06:17;15.00;99.90
15343;DHT22;7771;48.478;8.936;2023-05-10T04:08:43;14.90;99.90
15343;DHT22;7771;48.478;8.936;2023-05-10T04:11:11;15.00;99.90
15343;DHT22;7771;48.478;8.936;2023-05-10T04:13:38;14.90;99.90
15343;DHT22;7771;48.478;8.936;2023-05-10T04:16:05;14.90;99.90
15343;DHT22;7771;48.478;8.936;2023-05-10T04:18:32;14.90;99.90
15343;DHT22;7771;48.478;8.936;2023-05-10T04:20:59;14.90;99.90
15343;DHT22;7771;48.478;8.936;2023-05-10T04:23:27;14.90;99.90
15343;DHT22;7771;48.478;8.936;2023-05-10T04:26:01;15.00;99.90
15343;DHT22;7771;48.478;8.936;2023-05-10T04:28:28;14.90;99.90
15343;DHT22;7771;48.478;8.936;2023-05-10T04:31:02;14.90;99.90
15343;DHT22;7771;48.478;8.936;2023-05-10T04:33:28;14.90;99.90
15343;DHT22;7771;48.478;8.936;2023-05-10T04:35:56;14.90;99.90
15343;DHT22;7771;48.478;8.936;2023-05-10T04:38:24;14.90;99.90
15343;DHT22;7771;48.478;8.936;2023-05-10T04:40:50;14.90;99.90
15343;DHT22;7771;48.478;8.936;2023-05-10T04:43:17;15.00;99.90
15343;DHT22;7771;48.478;8.936;2023-05-10T04:45:44;15.00;99.90
15343;DHT22;7771;48.478;8.936;2023-05-10T04:48:12;15.00;99.90
15343;DHT22;7771;48.478;8.936;2023-05-10T04:50:39;15.10;99.90
15343;DHT22;7771;48.478;8.936;2023-05-10T04:53:06;15.10;99.90
15343;DHT22;7771;48.478;8.936;2023-05-10T04:55:33;15.10;99.90
15343;DHT22;7771;48.478;8.936;2023-05-10T04:58:00;15.10;99.90
15343;DHT22;7771;48.478;8.936;2023-05-10T05:00:28;15.10;99.90
15343;DHT22;7771;48.478;8.936;2023-05-10T05:02:55;15.20;99.90
15343;DHT22;7771;48.478;8.936;2023-05-10T05:05:22;15.20;99.90
15343;DHT22;7771;48.478;8.936;2023-05-10T05:07:50;15.10;99.90
15343;DHT22;7771;48.478;8.936;2023-05-10T05:10:17;15.20;99.90
15343;DHT22;7771;48.478;8.936;2023-05-10T05:12:45;15.10;99.90
15343;DHT22;7771;48.478;8.936;2023-05-10T05:17:40;15.20;99.90
15343;DHT22;7771;48.478;8.936;2023-05-10T05:20:07;15.20;99.90
15343;DHT22;7771;48.478;8.936;2023-05-10T05:25:02;15.10;99.90
15343;DHT22;7771;48.478;8.936;2023-05-10T05:27:28;15.20;99.90
15343;DHT22;7771;48.478;8.936;2023-05-10T05:29:55;15.20;99.90
15343;DHT22;7771;48.478;8.936;2023-05-10T05:32:23;15.20;99.90
15343;DHT22;7771;48.478;8.936;2023-05-10T05:39:46;15.30;99.90
15343;DHT22;7771;48.478;8.936;2023-05-10T05:49:37;15.30;99.90
15343;DHT22;7771;48.478;8.936;2023-05-10T05:52:04;15.50;99.90
15343;DHT22;7771;48.478;8.936;2023-05-10T05:54:31;15.50;99.90
15343;DHT22;7771;48.478;8.936;2023-05-10T05:56:59;15.50;99.90
15343;DHT22;7771;48.478;8.936;2023-05-10T05:59:26;15.50;99.90
15343;DHT22;7771;48.478;8.936;2023-05-10T06:01:53;15.50;99.90
15343;DHT22;7771;48.478;8.936;2023-05-10T06:04:20;15.50;99.90
15343;DHT22;7771;48.478;8.936;2023-05-10T06:06:47;15.50;99.90
15343;DHT22;7771;48.478;8.936;2023-05-10T06:09:15;15.60;99.90
15343;DHT22;7771;48.478;8.936;2023-05-10T06:11:43;15.60;99.90
15343;DHT22;7771;48.478;8.936;2023-05-10T06:14:10;15.70;99.90
15343;DHT22;7771;48.478;8.936;2023-05-10T06:16:37;15.70;99.90
15343;DHT22;7771;48.478;8.936;2023-05-10T06:19:05;15.70;99.90
15343;DHT22;7771;48.478;8.936;2023-05-10T06:21:32;15.80;99.90
15343;DHT22;7771;48.478;8.936;2023-05-10T06:23:58;15.90;99.90
15343;DHT22;7771;48.478;8.936;2023-05-10T06:31:23;16.00;99.90
15343;DHT22;7771;48.478;8.936;2023-05-10T06:33:50;16.10;99.90
15343;DHT22;7771;48.478;8.936;2023-05-10T06:36:18;16.10;99.90
15343;DHT22;7771;48.478;8.936;2023-05-10T06:38:45;16.10;99.90
15343;DHT22;7771;48.478;8.936;2023-05-10T06:41:12;16.10;99.90
15343;DHT22;7771;48.478;8.936;2023-05-10T06:43:39;16.20;99.90
15343;DHT22;7771;48.478;8.936;2023-05-10T06:46:07;16.20;99.90
15343;DHT22;7771;48.478;8.936;2023-05-10T06:51:02;16.10;99.90
15343;DHT22;7771;48.478;8.936;2023-05-10T06:53:30;16.10;99.90
15343;DHT22;7771;48.478;8.936;2023-05-10T06:55:57;16.10;99.90
15343;DHT22;7771;48.478;8.936;2023-05-10T06:58:24;16.10;99.90
15343;DHT22;7771;48.478;8.936;2023-05-10T07:03:20;16.20;99.90
15343;DHT22;7771;48.478;8.936;2023-05-10T07:05:48;16.20;99.90
15343;DHT22;7771;48.478;8.936;2023-05-10T07:08:16;16.30;99.90
15343;DHT22;7771;48.478;8.936;2023-05-10T07:10:44;16.20;99.90
15343;DHT22;7771;48.478;8.936;2023-05-10T07:15:40;16.30;99.90
15343;DHT22;7771;48.478;8.936;2023-05-10T07:18:08;16.20;99.90
15343;DHT22;7771;48.478;8.936;2023-05-10T07:20:35;16.20;99.90
15343;DHT22;7771;48.478;8.936;2023-05-10T07:23:02;16.30;99.90
15343;DHT22;7771;48.478;8.936;2023-05-10T07:25:30;16.30;99.90
15343;DHT22;7771;48.478;8.936;2023-05-10T07:27:57;16.40;99.90
15343;DHT22;7771;48.478;8.936;2023-05-10T07:30:25;16.40;99.90
15343;DHT22;7771;48.478;8.936;2023-05-10T07:32:51;16.40;99.90
15343;DHT22;7771;48.478;8.936;2023-05-10T07:35:19;16.40;99.90
15343;DHT22;7771;48.478;8.936;2023-05-10T07:37:47;16.50;99.90
15343;DHT22;7771;48.478;8.936;2023-05-10T07:40:15;16.60;99.90
15343;DHT22;7771;48.478;8.936;2023-05-10T07:42:43;16.60;99.90
15343;DHT22;7771;48.478;8.936;2023-05-10T07:45:10;16.70;99.90
15343;DHT22;7771;48.478;8.936;2023-05-10T07:47:37;16.70;99.90
15343;DHT22;7771;48.478;8.936;2023-05-10T07:57:28;17.30;99.90
15343;DHT22;7771;48.478;8.936;2023-05-10T07:59:56;17.40;99.90
15343;DHT22;7771;48.478;8.936;2023-05-10T08:02:22;17.50;99.90
15343;DHT22;7771;48.478;8.936;2023-05-10T08:04:50;17.60;99.90
15343;DHT22;7771;48.478;8.936;2023-05-10T08:07:16;17.80;99.90
15343;DHT22;7771;48.478;8.936;2023-05-10T08:09:44;17.90;99.90
15343;DHT22;7771;48.478;8.936;2023-05-10T08:12:10;18.00;99.90
15343;DHT22;7771;48.478;8.936;2023-05-10T08:14:38;18.10;99.90
15343;DHT22;7771;48.478;8.936;2023-05-10T08:17:05;18.20;99.90
15343;DHT22;7771;48.478;8.936;2023-05-10T08:19:32;18.40;99.90
15343;DHT22;7771;48.478;8.936;2023-05-10T08:21:59;18.50;99.90
15343;DHT22;7771;48.478;8.936;2023-05-10T08:29:22;18.70;99.90
15343;DHT22;7771;48.478;8.936;2023-05-10T08:31:50;18.70;99.90
15343;DHT22;7771;48.478;8.936;2023-05-10T08:34:17;18.80;99.90
15343;DHT22;7771;48.478;8.936;2023-05-10T08:36:45;18.80;99.90
15343;DHT22;7771;48.478;8.936;2023-05-10T08:39:12;18.90;99.90
15343;DHT22;7771;48.478;8.936;2023-05-10T08:41:39;19.00;99.90
15343;DHT22;7771;48.478;8.936;2023-05-10T08:44:06;19.10;99.90
15343;DHT22;7771;48.478;8.936;2023-05-10T08:46:33;19.20;99.90
15343;DHT22;7771;48.478;8.936;2023-05-10T08:49:00;19.30;99.90
15343;DHT22;7771;48.478;8.936;2023-05-10T08:51:27;19.40;99.90
15343;DHT22;7771;48.478;8.936;2023-05-10T08:53:55;19.40;99.90
15343;DHT22;7771;48.478;8.936;2023-05-10T08:56:22;19.50;99.90
15343;DHT22;7771;48.478;8.936;2023-05-10T08:58:48;19.50;99.90
15343;DHT22;7771;48.478;8.936;2023-05-10T09:01:15;19.60;99.90
15343;DHT22;7771;48.478;8.936;2023-05-10T09:03:42;19.60;99.90
15343;DHT22;7771;48.478;8.936;2023-05-10T09:06:11;19.50;99.90
15343;DHT22;7771;48.478;8.936;2023-05-10T09:08:37;19.40;99.90
15343;DHT22;7771;48.478;8.936;2023-05-10T09:11:03;19.50;99.90
15343;DHT22;7771;48.478;8.936;2023-05-10T09:13:31;19.60;99.90
15343;DHT22;7771;48.478;8.936;2023-05-10T09:18:26;19.60;99.90
15343;DHT22;7771;48.478;8.936;2023-05-10T09:20:55;19.50;99.90
15343;DHT22;7771;48.478;8.936;2023-05-10T09:23:22;19.50;99.90
15343;DHT22;7771;48.478;8.936;2023-05-10T09:26:01;19.40;99.90
15343;DHT22;7771;48.478;8.936;2023-05-10T09:28:16;19.40;99.90
15343;DHT22;7771;48.478;8.936;2023-05-10T09:30:42;19.30;99.90
15343;DHT22;7771;48.478;8.936;2023-05-10T09:38:05;19.00;99.90
15343;DHT22;7771;48.478;8.936;2023-05-10T09:40:32;18.90;99.90
15343;DHT22;7771;48.478;8.936;2023-05-10T09:43:00;18.80;99.90
15343;DHT22;7771;48.478;8.936;2023-05-10T09:45:28;18.70;99.90
15343;DHT22;7771;48.478;8.936;2023-05-10T09:47:55;18.50;99.90
15343;DHT22;7771;48.478;8.936;2023-05-10T09:50:22;18.40;99.90
15343;DHT22;7771;48.478;8.936;2023-05-10T09:52:51;18.40;99.90
15343;DHT22;7771;48.478;8.936;2023-05-10T09:55:17;18.30;99.90
15343;DHT22;7771;48.478;8.936;2023-05-10T09:57:44;18.20;99.90
15343;DHT22;7771;48.478;8.936;2023-05-10T10:00:20;18.10;99.90
15343;DHT22;7771;48.478;8.936;2023-05-10T10:02:53;18.00;99.90
15343;DHT22;7771;48.478;8.936;2023-05-10T10:05:15;17.90;99.90
15343;DHT22;7771;48.478;8.936;2023-05-10T10:07:42;17.90;99.90
15343;DHT22;7771;48.478;8.936;2023-05-10T10:12:39;18.00;99.90
15343;DHT22;7771;48.478;8.936;2023-05-10T10:15:06;18.10;99.90
15343;DHT22;7771;48.478;8.936;2023-05-10T10:17:34;18.10;99.90
15343;DHT22;7771;48.478;8.936;2023-05-10T10:20:02;18.20;99.90
15343;DHT22;7771;48.478;8.936;2023-05-10T10:22:30;18.40;99.90
15343;DHT22;7771;48.478;8.936;2023-05-10T10:24:57;18.60;99.90
15343;DHT22;7771;48.478;8.936;2023-05-10T10:27:34;18.80;99.90
15343;DHT22;7771;48.478;8.936;2023-05-10T10:30:14;19.00;99.90
15343;DHT22;7771;48.478;8.936;2023-05-10T10:38:08;19.70;99.90
15343;DHT22;7771;48.478;8.936;2023-05-10T10:40:34;19.90;99.90
15343;DHT22;7771;48.478;8.936;2023-05-10T10:45:40;20.40;99.90
15343;DHT22;7771;48.478;8.936;2023-05-10T10:48:19;20.60;99.90
15343;DHT22;7771;48.478;8.936;2023-05-10T10:53:14;20.30;99.90
15343;DHT22;7771;48.478;8.936;2023-05-10T10:55:46;20.10;99.90
15343;DHT22;7771;48.478;8.936;2023-05-10T10:58:34;19.70;99.90
15343;DHT22;7771;48.478;8.936;2023-05-10T11:01:12;19.40;99.90
15343;DHT22;7771;48.478;8.936;2023-05-10T11:03:39;19.20;99.90
15343;DHT22;7771;48.478;8.936;2023-05-10T11:06:07;18.90;99.90
15343;DHT22;7771;48.478;8.936;2023-05-10T11:08:34;18.70;99.90
15343;DHT22;7771;48.478;8.936;2023-05-10T11:11:05;18.50;99.90
15343;DHT22;7771;48.478;8.936;2023-05-10T11:13:40;18.20;99.90
15343;DHT22;7771;48.478;8.936;2023-05-10T11:16:13;18.20;99.90
15343;DHT22;7771;48.478;8.936;2023-05-10T11:18:40;18.00;99.90
15343;DHT22;7771;48.478;8.936;2023-05-10T11:21:08;18.00;99.90
15343;DHT22;7771;48.478;8.936;2023-05-10T11:23:55;18.00;99.90
15343;DHT22;7771;48.478;8.936;2023-05-10T11:26:25;18.00;99.90
15343;DHT22;7771;48.478;8.936;2023-05-10T11:28:50;18.00;99.90
15343;DHT22;7771;48.478;8.936;2023-05-10T11:31:18;17.90;99.90
15343;DHT22;7771;48.478;8.936;2023-05-10T11:33:46;17.90;99.90
15343;DHT22;7771;48.478;8.936;2023-05-10T11:36:15;18.00;99.90
15343;DHT22;7771;48.478;8.936;2023-05-10T11:41:11;18.20;99.90
15343;DHT22;7771;48.478;8.936;2023-05-10T11:43:38;18.20;99.90
15343;DHT22;7771;48.478;8.936;2023-05-10T11:46:06;18.30;99.90
15343;DHT22;7771;48.478;8.936;2023-05-10T11:51:01;18.30;99.90
15343;DHT22;7771;48.478;8.936;2023-05-10T11:56:03;18.30;99.90
15343;DHT22;7771;48.478;8.936;2023-05-10T12:00:57;18.20;99.90
15343;DHT22;7771;48.478;8.936;2023-05-10T12:03:24;18.20;99.90
15343;DHT22;7771;48.478;8.936;2023-05-10T12:05:51;18.10;99.90
15343;DHT22;7771;48.478;8.936;2023-05-10T12:08:21;18.00;99.90
15343;DHT22;7771;48.478;8.936;2023-05-10T12:10:47;18.00;99.90
15343;DHT22;7771;48.478;8.936;2023-05-10T12:13:14;18.00;99.90
15343;DHT22;7771;48.478;8.936;2023-05-10T12:15:42;18.00;99.90
15343;DHT22;7771;48.478;8.936;2023-05-10T12:20:36;18.00;99.90
15343;DHT22;7771;48.478;8.936;2023-05-10T12:23:04;18.00;99.90
15343;DHT22;7771;48.478;8.936;2023-05-10T12:25:31;17.90;99.90
15343;DHT22;7771;48.478;8.936;2023-05-10T12:27:59;17.70;99.90
15343;DHT22;7771;48.478;8.936;2023-05-10T12:30:27;17.60;99.90
15343;DHT22;7771;48.478;8.936;2023-05-10T12:32:59;17.60;99.90
15343;DHT22;7771;48.478;8.936;2023-05-10T12:35:22;17.60;99.90
15343;DHT22;7771;48.478;8.936;2023-05-10T12:37:50;17.70;99.90
15343;DHT22;7771;48.478;8.936;2023-05-10T12:40:15;17.80;99.90
15343;DHT22;7771;48.478;8.936;2023-05-10T12:42:43;17.90;99.90
15343;DHT22;7771;48.478;8.936;2023-05-10T12:45:12;18.00;99.90
15343;DHT22;7771;48.478;8.936;2023-05-10T12:50:07;18.00;99.90
15343;DHT22;7771;48.478;8.936;2023-05-10T12:52:35;18.00;99.90
15343;DHT22;7771;48.478;8.936;2023-05-10T12:55:03;18.10;99.90
15343;DHT22;7771;48.478;8.936;2023-05-10T12:57:30;18.20;99.90
15343;DHT22;7771;48.478;8.936;2023-05-10T12:59:57;18.20;99.90
15343;DHT22;7771;48.478;8.936;2023-05-10T13:07:20;18.70;99.90
15343;DHT22;7771;48.478;8.936;2023-05-10T13:09:47;18.80;99.90
15343;DHT22;7771;48.478;8.936;2023-05-10T13:12:14;18.90;99.90
15343;DHT22;7771;48.478;8.936;2023-05-10T13:14:40;19.00;99.90
15343;DHT22;7771;48.478;8.936;2023-05-10T13:19:35;19.20;99.90
15343;DHT22;7771;48.478;8.936;2023-05-10T13:22:02;19.30;99.90
15343;DHT22;7771;48.478;8.936;2023-05-10T13:24:29;19.30;99.90
15343;DHT22;7771;48.478;8.936;2023-05-10T13:26:56;19.30;99.90
15343;DHT22;7771;48.478;8.936;2023-05-10T13:29:24;19.40;99.90
15343;DHT22;7771;48.478;8.936;2023-05-10T13:31:51;19.50;99.90
15343;DHT22;7771;48.478;8.936;2023-05-10T13:34:18;19.60;99.90
15343;DHT22;7771;48.478;8.936;2023-05-10T13:36:45;19.70;99.90
15343;DHT22;7771;48.478;8.936;2023-05-10T13:39:13;19.70;99.90
15343;DHT22;7771;48.478;8.936;2023-05-10T13:41:39;19.80;99.90
15343;DHT22;7771;48.478;8.936;2023-05-10T13:44:07;19.80;99.90
15343;DHT22;7771;48.478;8.936;2023-05-10T13:46:33;19.80;99.90
15343;DHT22;7771;48.478;8.936;2023-05-10T13:49:00;19.80;99.90
15343;DHT22;7771;48.478;8.936;2023-05-10T13:51:27;19.80;99.90
15343;DHT22;7771;48.478;8.936;2023-05-10T13:53:54;19.70;99.90
15343;DHT22;7771;48.478;8.936;2023-05-10T13:58:48;19.80;99.90
15343;DHT22;7771;48.478;8.936;2023-05-10T14:01:16;19.70;99.90
15343;DHT22;7771;48.478;8.936;2023-05-10T14:03:43;19.70;99.90
15343;DHT22;7771;48.478;8.936;2023-05-10T14:06:10;19.80;99.90
15343;DHT22;7771;48.478;8.936;2023-05-10T14:08:36;19.80;99.90
15343;DHT22;7771;48.478;8.936;2023-05-10T14:11:04;19.70;99.90
15343;DHT22;7771;48.478;8.936;2023-05-10T14:13:31;19.70;99.90
15343;DHT22;7771;48.478;8.936;2023-05-10T14:15:58;19.70;99.90
15343;DHT22;7771;48.478;8.936;2023-05-10T14:18:24;19.70;99.90
15343;DHT22;7771;48.478;8.936;2023-05-10T14:23:19;19.70;99.90
15343;DHT22;7771;48.478;8.936;2023-05-10T14:25:46;19.60;99.90
15343;DHT22;7771;48.478;8.936;2023-05-10T14:28:13;19.50;99.90
15343;DHT22;7771;48.478;8.936;2023-05-10T14:30:40;19.40;99.90
15343;DHT22;7771;48.478;8.936;2023-05-10T14:33:07;19.40;99.90
15343;DHT22;7771;48.478;8.936;2023-05-10T14:35:35;19.30;99.90
15343;DHT22;7771;48.478;8.936;2023-05-10T14:38:02;19.20;99.90
15343;DHT22;7771;48.478;8.936;2023-05-10T14:40:29;19.10;99.90
15343;DHT22;7771;48.478;8.936;2023-05-10T14:42:56;19.00;99.90
15343;DHT22;7771;48.478;8.936;2023-05-10T14:45:25;18.90;99.90
15343;DHT22;7771;48.478;8.936;2023-05-10T14:47:52;18.90;99.90
15343;DHT22;7771;48.478;8.936;2023-05-10T14:50:20;18.90;99.90
15343;DHT22;7771;48.478;8.936;2023-05-10T14:52:47;18.90;99.90
15343;DHT22;7771;48.478;8.936;2023-05-10T14:55:14;18.90;99.90
15343;DHT22;7771;48.478;8.936;2023-05-10T14:57:40;18.90;99.90
15343;DHT22;7771;48.478;8.936;2023-05-10T15:07:32;18.80;99.90
15343;DHT22;7771;48.478;8.936;2023-05-10T15:09:59;18.80;99.90
15343;DHT22;7771;48.478;8.936;2023-05-10T15:12:26;18.80;99.90
15343;DHT22;7771;48.478;8.936;2023-05-10T15:14:53;18.90;99.90
15343;DHT22;7771;48.478;8.936;2023-05-10T15:17:21;18.90;99.90
15343;DHT22;7771;48.478;8.936;2023-05-10T15:19:47;18.90;99.90
15343;DHT22;7771;48.478;8.936;2023-05-10T15:22:15;18.90;99.90
15343;DHT22;7771;48.478;8.936;2023-05-10T15:24:41;18.90;99.90
15343;DHT22;7771;48.478;8.936;2023-05-10T15:27:08;18.80;99.90
15343;DHT22;7771;48.478;8.936;2023-05-10T15:29:35;18.80;99.90
15343;DHT22;7771;48.478;8.936;2023-05-10T15:34:31;18.80;99.90
15343;DHT22;7771;48.478;8.936;2023-05-10T15:39:25;18.80;99.90
15343;DHT22;7771;48.478;8.936;2023-05-10T15:44:20;18.80;99.90
15343;DHT22;7771;48.478;8.936;2023-05-10T15:46:47;18.80;99.90
15343;DHT22;7771;48.478;8.936;2023-05-10T15:49:14;18.70;99.90
15343;DHT22;7771;48.478;8.936;2023-05-10T15:51:41;18.60;99.90
15343;DHT22;7771;48.478;8.936;2023-05-10T15:54:08;18.50;99.90
15343;DHT22;7771;48.478;8.936;2023-05-10T15:56:36;18.50;99.90
15343;DHT22;7771;48.478;8.936;2023-05-10T15:59:04;18.50;99.90
15343;DHT22;7771;48.478;8.936;2023-05-10T16:01:32;18.50;99.90
15343;DHT22;7771;48.478;8.936;2023-05-10T16:03:59;18.40;99.90
15343;DHT22;7771;48.478;8.936;2023-05-10T16:06:26;18.40;99.90
15343;DHT22;7771;48.478;8.936;2023-05-10T16:14:02;18.30;99.90
15343;DHT22;7771;48.478;8.936;2023-05-10T16:21:26;18.20;99.90
15343;DHT22;7771;48.478;8.936;2023-05-10T16:23:53;18.20;99.90
15343;DHT22;7771;48.478;8.936;2023-05-10T16:26:19;18.20;99.90
15343;DHT22;7771;48.478;8.936;2023-05-10T16:28:47;18.20;99.90
15343;DHT22;7771;48.478;8.936;2023-05-10T16:31:14;18.20;99.90
15343;DHT22;7771;48.478;8.936;2023-05-10T16:33:42;18.20;99.90
15343;DHT22;7771;48.478;8.936;2023-05-10T16:38:38;18.10;99.90
15343;DHT22;7771;48.478;8.936;2023-05-10T16:41:06;18.00;99.90
15343;DHT22;7771;48.478;8.936;2023-05-10T16:43:32;17.90;99.90
15343;DHT22;7771;48.478;8.936;2023-05-10T16:50:56;17.70;99.90
15343;DHT22;7771;48.478;8.936;2023-05-10T16:53:22;17.70;99.90
15343;DHT22;7771;48.478;8.936;2023-05-10T16:55:50;17.60;99.90
15343;DHT22;7771;48.478;8.936;2023-05-10T16:58:16;17.50;99.90
15343;DHT22;7771;48.478;8.936;2023-05-10T17:00:44;17.40;99.90
15343;DHT22;7771;48.478;8.936;2023-05-10T17:03:12;17.40;99.90
15343;DHT22;7771;48.478;8.936;2023-05-10T17:05:40;17.30;99.90
15343;DHT22;7771;48.478;8.936;2023-05-10T17:08:09;17.20;99.90
15343;DHT22;7771;48.478;8.936;2023-05-10T17:13:07;17.20;99.90
15343;DHT22;7771;48.478;8.936;2023-05-10T17:18:02;17.10;99.90
15343;DHT22;7771;48.478;8.936;2023-05-10T17:20:30;17.10;99.90
15343;DHT22;7771;48.478;8.936;2023-05-10T17:25:25;17.00;99.90
15343;DHT22;7771;48.478;8.936;2023-05-10T17:27:54;17.00;99.90
15343;DHT22;7771;48.478;8.936;2023-05-10T17:35:16;16.90;99.90
15343;DHT22;7771;48.478;8.936;2023-05-10T17:37:43;16.90;99.90
15343;DHT22;7771;48.478;8.936;2023-05-10T17:40:10;16.90;99.90
15343;DHT22;7771;48.478;8.936;2023-05-10T17:42:37;16.90;99.90
15343;DHT22;7771;48.478;8.936;2023-05-10T17:45:04;16.90;99.90
15343;DHT22;7771;48.478;8.936;2023-05-10T17:47:33;16.80;99.90
15343;DHT22;7771;48.478;8.936;2023-05-10T17:49:59;16.70;99.90
15343;DHT22;7771;48.478;8.936;2023-05-10T17:52:26;16.80;99.90
15343;DHT22;7771;48.478;8.936;2023-05-10T17:54:53;16.70;99.90
15343;DHT22;7771;48.478;8.936;2023-05-10T17:57:19;16.70;99.90
15343;DHT22;7771;48.478;8.936;2023-05-10T17:59:46;16.70;99.90
15343;DHT22;7771;48.478;8.936;2023-05-10T18:02:13;16.70;99.90
15343;DHT22;7771;48.478;8.936;2023-05-10T18:07:08;16.70;99.90
15343;DHT22;7771;48.478;8.936;2023-05-10T18:14:31;16.50;99.90
15343;DHT22;7771;48.478;8.936;2023-05-10T18:16:58;16.50;99.90
15343;DHT22;7771;48.478;8.936;2023-05-10T18:19:25;16.40;99.90
15343;DHT22;7771;48.478;8.936;2023-05-10T18:21:54;16.40;99.90
15343;DHT22;7771;48.478;8.936;2023-05-10T18:24:22;16.40;99.90
15343;DHT22;7771;48.478;8.936;2023-05-10T18:29:16;16.40;99.90
15343;DHT22;7771;48.478;8.936;2023-05-10T18:34:12;16.30;99.90
15343;DHT22;7771;48.478;8.936;2023-05-10T18:36:41;16.20;99.90
15343;DHT22;7771;48.478;8.936;2023-05-10T18:39:10;16.20;99.90
15343;DHT22;7771;48.478;8.936;2023-05-10T18:44:05;16.10;99.90